createdAt,value
2018-08-24T00:00:19.611Z,100099.92
2018-08-24T00:03:18.947Z,100101.81
2018-08-24T00:06:16.937Z,100097.37
2018-08-24T00:09:14.902Z,100090.27
2018-08-24T00:12:13.215Z,100088.06
2018-08-24T00:15:11.252Z,100088.06
2018-08-24T00:18:09.292Z,100078.80
2018-08-24T00:21:08.526Z,100083.20
2018-08-24T00:24:06.333Z,100075.24
2018-08-24T00:27:04.647Z,100073.39
2018-08-24T00:30:02.918Z,100070.69
2018-08-24T00:33:01.183Z,100062.77
2018-08-24T00:35:59.267Z,100063.27
2018-08-24T00:38:57.464Z,100057.87
2018-08-24T00:41:55.434Z,100055.17
2018-08-24T00:44:53.753Z,100050.77
2018-08-24T00:47:53.210Z,100046.72
2018-08-24T00:50:51.386Z,100039.65
2018-08-24T00:53:50.560Z,100036.95
2018-08-24T00:56:48.718Z,100037.94
2018-08-24T00:59:46.974Z,100034.39
2018-08-24T01:02:45.054Z,100017.02
2018-08-24T01:05:43.007Z,100021.92
2018-08-24T01:08:40.854Z,100019.72
2018-08-24T01:11:44.752Z,100015.81
2018-08-24T01:14:43.261Z,100008.25
2018-08-24T01:17:47.207Z,100013.30
2018-08-24T01:20:45.359Z,100002.50
2018-08-24T01:23:43.719Z,100010.60
2018-08-24T01:26:41.838Z,100000.48
2018-08-24T01:29:42.011Z,99997.78
2018-08-24T01:32:40.487Z,99992.03
2018-08-24T01:35:39.118Z,99988.98
2018-08-24T01:38:37.253Z,99990.33
2018-08-24T01:41:35.226Z,99996.76
2018-08-24T01:44:34.300Z,99994.55
2018-08-24T01:47:32.342Z,99989.34
2018-08-24T01:50:31.324Z,99995.55
2018-08-24T01:53:29.294Z,99984.94
2018-08-24T01:56:27.574Z,99973.78
2018-08-24T01:59:25.785Z,99978.19
2018-08-24T02:02:24.023Z,99969.73
2018-08-24T02:05:21.838Z,99960.47
2018-08-24T02:08:20.191Z,99955.25
2018-08-24T02:11:24.117Z,99958.45
2018-08-24T02:14:28.098Z,99962.00
2018-08-24T02:17:31.782Z,99951.85
2018-08-24T02:20:35.894Z,99953.73
2018-08-24T02:23:33.944Z,99946.13
2018-08-24T02:26:32.122Z,99946.63
2018-08-24T02:29:30.287Z,99939.03
2018-08-24T02:32:28.656Z,99932.28
2018-08-24T02:35:27.666Z,99931.44
2018-08-24T02:38:25.797Z,99933.64
2018-08-24T02:41:23.852Z,99932.28
2018-08-24T02:44:22.167Z,99930.94
2018-08-24T02:47:21.907Z,99926.89
2018-08-24T02:50:20.150Z,99923.69
2018-08-24T02:53:18.252Z,99919.29
2018-08-24T02:56:16.678Z,99915.77
2018-08-24T02:59:15.299Z,99914.24
2018-08-24T03:02:13.677Z,99916.94
2018-08-24T03:05:11.817Z,99919.64
2018-08-24T03:08:10.335Z,99904.98
2018-08-24T03:11:08.059Z,99906.14
2018-08-24T03:14:06.451Z,99906.14
2018-08-24T03:18:08.188Z,99900.75
2018-08-24T03:21:06.270Z,99896.03
2018-08-24T03:24:04.189Z,99895.67
2018-08-24T03:27:02.279Z,99897.03
2018-08-24T03:30:00.422Z,99890.28
2018-08-24T03:32:58.425Z,99891.98
2018-08-24T03:35:56.349Z,99890.28
2018-08-24T03:38:54.468Z,99881.69
2018-08-24T03:41:52.478Z,99884.73
2018-08-24T03:44:50.496Z,99881.19
2018-08-24T03:47:48.571Z,99882.03
2018-08-24T03:50:46.820Z,99882.53
2018-08-24T03:53:45.597Z,99882.53
2018-08-24T03:56:43.879Z,99882.53
2018-08-24T03:59:41.769Z,99872.73
2018-08-24T04:02:40.123Z,99870.89
2018-08-24T04:05:37.955Z,99873.42
2018-08-24T04:08:36.120Z,99878.13
2018-08-24T04:11:33.969Z,99873.23
2018-08-24T04:14:32.149Z,99872.06
2018-08-24T04:17:36.292Z,99867.17
2018-08-24T04:20:34.309Z,99864.47
2018-08-24T04:23:32.252Z,99861.95
2018-08-24T04:26:30.273Z,99869.52
2018-08-24T04:29:29.373Z,99873.56
2018-08-24T04:32:27.274Z,99873.56
2018-08-24T04:35:25.277Z,99870.38
2018-08-24T04:38:23.286Z,99870.05
2018-08-24T04:41:21.285Z,99868.17
2018-08-24T04:44:20.601Z,99869.20
2018-08-24T04:47:19.341Z,99866.00
2018-08-24T04:50:17.188Z,99861.42
2018-08-24T04:53:15.131Z,99863.63
2018-08-24T04:56:13.553Z,99859.58
2018-08-24T04:59:11.277Z,99862.13
2018-08-24T05:02:10.570Z,99860.59
2018-08-24T05:05:08.449Z,99847.45
2018-08-24T05:08:06.446Z,99851.00
2018-08-24T05:11:04.447Z,99851.66
2018-08-24T05:14:02.575Z,99853.86
2018-08-24T05:17:01.530Z,99848.78
2018-08-24T05:19:59.513Z,99842.88
2018-08-24T05:22:58.460Z,99839.50
2018-08-24T05:25:56.733Z,99832.60
2018-08-24T05:28:54.815Z,99836.12
2018-08-24T05:31:54.205Z,99827.88
2018-08-24T05:34:52.343Z,99834.44
2018-08-24T05:37:50.861Z,99824.84
2018-08-24T05:40:48.716Z,99830.05
2018-08-24T05:43:47.828Z,99822.30
2018-08-24T05:46:45.647Z,99823.47
2018-08-24T05:49:44.173Z,99814.36
2018-08-24T05:52:42.789Z,99812.33
2018-08-24T05:55:41.239Z,99816.20
2018-08-24T05:58:39.266Z,99804.75
2018-08-24T06:01:37.847Z,99800.51
2018-08-24T06:04:35.873Z,99798.97
2018-08-24T06:07:34.881Z,99796.13
2018-08-24T06:10:33.683Z,99786.48
2018-08-24T06:13:31.977Z,99779.11
2018-08-24T06:16:30.026Z,99785.17
2018-08-24T06:19:29.127Z,99786.84
2018-08-24T06:22:27.218Z,99781.78
2018-08-24T06:25:25.303Z,99784.65
2018-08-24T06:28:23.347Z,99778.75
2018-08-24T06:31:21.374Z,99768.95
2018-08-24T06:34:19.369Z,99776.87
2018-08-24T06:37:17.385Z,99772.98
2018-08-24T06:40:15.633Z,99776.34
2018-08-24T06:43:14.919Z,99782.25
2018-08-24T06:46:12.607Z,99776.66
2018-08-24T06:49:11.641Z,99768.21
2018-08-24T06:52:09.854Z,99766.52
2018-08-24T06:55:08.650Z,99773.08
2018-08-24T06:58:07.070Z,99761.77
2018-08-24T07:01:05.547Z,99769.22
2018-08-24T07:04:03.766Z,99771.73
2018-08-24T07:07:02.437Z,99773.75
2018-08-24T07:10:01.495Z,99773.24
2018-08-24T07:13:00.646Z,99775.76
2018-08-24T07:15:58.461Z,99778.99
2018-08-24T07:18:56.668Z,99784.72
2018-08-24T07:21:54.439Z,99786.41
2018-08-24T07:24:52.767Z,99784.02
2018-08-24T07:27:50.565Z,99784.02
2018-08-24T07:30:48.757Z,99771.36
2018-08-24T07:33:47.029Z,99770.86
2018-08-24T07:36:45.146Z,99764.61
2018-08-24T07:39:43.475Z,99767.66
2018-08-24T07:42:41.554Z,99762.41
2018-08-24T07:45:39.501Z,99764.11
2018-08-24T07:48:37.730Z,99768.16
2018-08-24T07:51:35.883Z,99771.86
2018-08-24T07:54:34.733Z,99769.70
2018-08-24T07:57:33.062Z,99769.35
2018-08-24T08:00:31.412Z,99773.75
2018-08-24T08:03:29.657Z,99767.81
2018-08-24T08:06:28.232Z,99772.20
2018-08-24T08:09:26.792Z,99768.66
2018-08-24T08:12:25.417Z,99761.75
2018-08-24T08:15:23.779Z,99766.97
2018-08-24T08:18:22.599Z,99761.06
2018-08-24T08:21:21.656Z,99756.66
2018-08-24T08:24:19.737Z,99760.02
2018-08-24T08:27:17.835Z,99755.97
2018-08-24T08:30:15.846Z,99759.02
2018-08-24T08:33:13.651Z,99755.81
2018-08-24T08:36:11.921Z,99750.21
2018-08-24T08:39:11.593Z,99753.95
2018-08-24T08:42:09.485Z,99756.97
2018-08-24T08:45:08.321Z,99755.11
2018-08-24T08:48:06.581Z,99754.27
2018-08-24T08:51:04.390Z,99749.20
2018-08-24T08:54:03.471Z,99746.85
2018-08-24T08:57:01.461Z,99734.84
2018-08-24T08:59:59.834Z,99737.39
2018-08-24T09:02:57.697Z,99736.05
2018-08-24T09:05:55.949Z,99734.84
2018-08-24T09:08:53.893Z,99730.09
2018-08-24T09:11:51.766Z,99725.73
2018-08-24T09:14:50.984Z,99730.30
2018-08-24T09:17:55.517Z,99722.69
2018-08-24T09:21:00.083Z,99714.77
2018-08-24T09:24:04.993Z,99716.12
2018-08-24T09:27:09.263Z,99706.32
2018-08-24T09:30:10.514Z,99701.42
2018-08-24T09:33:08.642Z,99704.47
2018-08-24T09:36:12.150Z,99698.72
2018-08-24T09:39:10.237Z,99700.58
2018-08-24T09:42:09.664Z,99704.63
2018-08-24T09:45:07.652Z,99704.31
2018-08-24T09:48:11.820Z,99697.05
2018-08-24T09:51:15.978Z,99698.91
2018-08-24T09:54:16.494Z,99691.30
2018-08-24T09:57:15.234Z,99690.45
2018-08-24T10:00:13.514Z,99694.70
2018-08-24T10:03:17.726Z,99692.84
2018-08-24T10:06:21.978Z,99687.95
2018-08-24T10:09:22.863Z,99678.65
2018-08-24T10:12:21.056Z,99687.60
2018-08-24T10:15:19.937Z,99689.14
2018-08-24T10:18:18.291Z,99690.50
2018-08-24T10:21:17.113Z,99682.89
2018-08-24T10:24:15.717Z,99681.54
2018-08-24T10:27:13.600Z,99676.14
2018-08-24T10:30:12.397Z,99677.99
2018-08-24T10:33:10.973Z,99678.34
2018-08-24T10:36:09.350Z,99681.89
2018-08-24T10:39:08.687Z,99678.65
2018-08-24T10:42:07.138Z,99678.34
2018-08-24T10:45:05.594Z,99685.09
2018-08-24T10:48:03.983Z,99681.03
2018-08-24T10:51:02.604Z,99678.34
2018-08-24T10:54:00.527Z,99676.98
2018-08-24T10:56:58.690Z,99678.84
2018-08-24T10:59:56.743Z,99676.48
2018-08-24T11:02:54.815Z,99674.79
2018-08-24T11:05:53.251Z,99672.09
2018-08-24T11:08:51.263Z,99673.78
2018-08-24T11:11:49.827Z,99676.98
2018-08-24T11:14:47.554Z,99680.70
2018-08-24T11:17:51.840Z,99683.39
2018-08-24T11:20:49.903Z,99692.34
2018-08-24T11:23:48.133Z,99684.44
2018-08-24T11:26:47.249Z,99682.23
2018-08-24T11:29:45.475Z,99681.73
2018-08-24T11:32:43.473Z,99687.14
2018-08-24T11:35:41.635Z,99684.44
2018-08-24T11:38:41.112Z,99676.83
2018-08-24T11:41:39.693Z,99676.83
2018-08-24T11:44:38.934Z,99671.93
2018-08-24T11:47:37.431Z,99674.63
2018-08-24T11:50:35.894Z,99667.88
2018-08-24T11:53:34.720Z,99664.83
2018-08-24T11:56:32.844Z,99672.94
2018-08-24T11:59:31.162Z,99667.22
2018-08-24T12:02:29.529Z,99661.82
2018-08-24T12:05:27.741Z,99664.17
2018-08-24T12:08:25.796Z,99666.56
2018-08-24T12:11:23.890Z,99670.62
2018-08-24T12:14:22.249Z,99667.91
2018-08-24T12:17:25.550Z,99672.97
2018-08-24T12:20:23.617Z,99675.33
2018-08-24T12:23:21.762Z,99670.63
2018-08-24T12:26:19.673Z,99675.02
2018-08-24T12:29:18.122Z,99683.28
2018-08-24T12:32:16.886Z,99675.68
2018-08-24T12:35:15.057Z,99680.58
2018-08-24T12:38:13.023Z,99680.77
2018-08-24T12:41:11.416Z,99676.38
2018-08-24T12:44:09.258Z,99679.58
2018-08-24T12:47:07.101Z,99672.32
2018-08-24T12:50:05.741Z,99668.96
2018-08-24T12:53:05.460Z,99667.61
2018-08-24T12:56:03.926Z,99673.52
2018-08-24T12:59:02.318Z,99673.52
2018-08-24T13:02:00.884Z,99678.07
2018-08-24T13:05:00.566Z,99679.42
2018-08-24T13:07:58.447Z,99679.77
2018-08-24T13:10:56.732Z,99676.22
2018-08-24T13:13:54.845Z,99666.27
2018-08-24T13:16:53.887Z,99676.38
2018-08-24T13:19:51.976Z,99661.52
2018-08-24T13:22:50.053Z,99655.80
2018-08-24T13:25:48.078Z,99664.22
2018-08-24T13:28:46.119Z,99671.81
2018-08-24T13:31:44.296Z,99674.52
2018-08-24T13:34:43.618Z,99673.67
2018-08-24T13:37:41.806Z,99670.47
2018-08-24T13:40:40.042Z,99678.06
2018-08-24T13:43:37.841Z,99661.02
2018-08-24T13:46:35.913Z,99681.08
2018-08-24T13:49:34.158Z,99675.68
2018-08-24T13:52:33.355Z,99672.16
2018-08-24T13:55:32.085Z,99664.88
2018-08-24T13:58:32.120Z,99660.83
2018-08-24T14:01:30.509Z,99656.77
2018-08-24T14:04:29.402Z,99671.63
2018-08-24T14:07:27.947Z,99659.47
2018-08-24T14:10:27.553Z,99665.72
2018-08-24T14:13:26.039Z,99666.23
2018-08-24T14:16:24.491Z,99672.47
2018-08-24T14:19:22.637Z,99666.23
2018-08-24T14:22:20.894Z,99662.17
2018-08-24T14:25:18.705Z,99660.83
2018-08-24T14:28:19.332Z,99658.13
2018-08-24T14:31:17.029Z,99652.72
2018-08-24T14:34:15.045Z,99649.20
2018-08-24T14:37:13.755Z,99639.75
2018-08-24T14:40:13.093Z,99634.84
2018-08-24T14:43:11.114Z,99639.41
2018-08-24T14:46:09.512Z,99639.06
2018-08-24T14:49:07.528Z,99639.59
2018-08-24T14:52:06.765Z,99647.70
2018-08-24T14:55:04.484Z,99647.70
2018-08-24T14:58:02.585Z,99641.95
2018-08-24T15:01:00.524Z,99637.05
2018-08-24T15:03:58.870Z,99639.75
2018-08-24T15:06:56.651Z,99630.30
2018-08-24T15:09:54.957Z,99644.30
2018-08-24T15:12:52.933Z,99644.84
2018-08-24T15:15:51.327Z,99647.70
2018-08-24T15:18:50.135Z,99644.50
2018-08-24T15:21:49.840Z,99652.25
2018-08-24T15:24:49.172Z,99650.75
2018-08-24T15:27:47.871Z,99650.09
2018-08-24T15:30:46.012Z,99653.30
2018-08-24T15:33:44.276Z,99652.45
2018-08-24T15:36:42.470Z,99661.90
2018-08-24T15:39:40.837Z,99650.78
2018-08-24T15:42:40.544Z,99667.80
2018-08-24T15:45:38.700Z,99663.75
2018-08-24T15:48:36.588Z,99659.70
2018-08-24T15:51:34.851Z,99665.95
2018-08-24T15:54:34.110Z,99673.20
2018-08-24T15:57:32.303Z,99667.80
2018-08-24T16:00:30.159Z,99656.50
2018-08-24T16:03:28.485Z,99656.15
2018-08-24T16:06:26.170Z,99664.25
2018-08-24T16:09:24.305Z,99670.84
2018-08-24T16:12:23.403Z,99674.91
2018-08-24T16:15:22.667Z,99673.05
2018-08-24T16:18:26.712Z,99668.80
2018-08-24T16:21:24.925Z,99659.35
2018-08-24T16:24:23.308Z,99638.33
2018-08-24T16:27:26.749Z,99653.60
2018-08-24T16:30:24.697Z,99652.41
2018-08-24T16:33:22.854Z,99640.56
2018-08-24T16:36:22.941Z,99645.15
2018-08-24T16:39:21.921Z,99645.97
2018-08-24T16:42:21.209Z,99652.56
2018-08-24T16:45:19.472Z,99650.02
2018-08-24T16:48:18.139Z,99646.46
2018-08-24T16:51:17.379Z,99643.26
2018-08-24T16:54:15.439Z,99637.66
2018-08-24T16:57:14.629Z,99623.15
2018-08-24T17:00:17.883Z,99627.20
2018-08-24T17:03:18.255Z,99606.94
2018-08-24T17:06:17.100Z,99575.47
2018-08-24T17:09:15.320Z,99606.75
2018-08-24T17:12:14.173Z,99600.19
2018-08-24T17:15:12.432Z,99599.69
2018-08-24T17:18:10.637Z,99600.69
2018-08-24T17:21:09.575Z,99584.83
2018-08-24T17:24:08.411Z,99596.64
2018-08-24T17:27:06.426Z,99601.53
2018-08-24T17:30:04.356Z,99591.23
2018-08-24T17:33:03.556Z,99593.94
2018-08-24T17:36:02.482Z,99599.53
2018-08-24T17:39:00.974Z,99602.73
2018-08-24T17:41:59.526Z,99609.48
2018-08-24T17:44:57.992Z,99549.92
2018-08-24T17:47:56.472Z,99614.55
2018-08-24T17:50:54.853Z,99618.29
2018-08-24T17:53:52.692Z,99619.30
2018-08-24T17:56:52.930Z,99605.79
2018-08-24T17:59:50.864Z,99618.45
2018-08-24T18:02:48.953Z,99626.05
2018-08-24T18:05:48.277Z,99620.30
2018-08-24T18:08:46.485Z,99624.05
2018-08-24T18:11:45.018Z,99622.69
2018-08-24T18:14:43.391Z,99626.40
2018-08-24T18:17:42.578Z,99629.10
2018-08-24T18:20:40.610Z,99630.95
2018-08-24T18:23:38.624Z,99641.26
2018-08-24T18:26:36.786Z,99629.60
2018-08-24T18:29:34.774Z,99633.16
2018-08-24T18:32:33.390Z,99642.45
2018-08-24T18:35:31.268Z,99642.11
2018-08-24T18:38:31.333Z,99648.35
2018-08-24T18:41:29.353Z,99648.16
2018-08-24T18:44:28.846Z,99642.77
2018-08-24T18:47:26.868Z,99675.68
2018-08-24T18:50:25.081Z,99689.19
2018-08-24T18:53:22.786Z,99712.99
2018-08-24T18:56:21.245Z,99718.09
2018-08-24T18:59:19.233Z,99712.15
2018-08-24T19:02:17.530Z,99705.39
2018-08-24T19:05:15.569Z,99708.62
2018-08-24T19:08:16.605Z,99705.58
2018-08-24T19:11:20.570Z,99698.83
2018-08-24T19:14:19.739Z,99719.59
2018-08-24T19:17:23.885Z,99716.05
2018-08-24T19:20:27.914Z,99720.28
2018-08-24T19:23:26.243Z,99704.80
2018-08-24T19:26:24.780Z,99734.80
2018-08-24T19:29:28.573Z,99735.83
2018-08-24T19:32:26.694Z,99733.44
2018-08-24T19:35:24.912Z,99729.08
2018-08-24T19:38:22.990Z,99729.58
2018-08-24T19:41:27.189Z,99724.17
2018-08-24T19:44:25.872Z,99716.27
2018-08-24T19:48:28.908Z,99703.27
2018-08-24T19:51:32.083Z,99714.22
2018-08-24T19:54:31.006Z,99709.16
2018-08-24T19:57:35.506Z,99718.11
2018-08-24T20:00:33.672Z,99715.92
2018-08-24T20:03:32.097Z,99719.97
2018-08-24T20:06:36.308Z,99714.25
2018-08-24T20:09:41.215Z,99711.55
2018-08-24T20:12:39.179Z,99716.30
2018-08-24T20:15:43.253Z,99723.05
2018-08-24T20:18:42.604Z,99721.34
2018-08-24T20:21:40.738Z,99715.59
2018-08-24T20:24:47.939Z,99709.38
2018-08-24T20:27:46.274Z,99717.48
2018-08-24T20:30:44.159Z,99724.39
2018-08-24T20:33:42.212Z,99714.62
2018-08-24T20:36:40.264Z,99721.88
2018-08-24T20:39:38.691Z,99742.13
2018-08-24T20:42:37.001Z,99756.13
2018-08-24T20:45:35.245Z,99764.23
2018-08-24T20:48:33.483Z,99759.52
2018-08-24T20:51:32.004Z,99763.89
2018-08-24T20:54:30.015Z,99771.67
2018-08-24T20:57:28.586Z,99771.83
2018-08-24T21:00:27.338Z,99781.63
2018-08-24T21:03:25.343Z,99775.88
2018-08-24T21:06:23.120Z,99785.86
2018-08-24T21:09:22.342Z,99779.58
2018-08-24T21:12:20.802Z,99785.48
2018-08-24T21:15:19.176Z,99783.28
2018-08-24T21:18:17.967Z,99792.23
2018-08-24T21:21:15.948Z,99781.44
2018-08-24T21:24:15.002Z,99788.69
2018-08-24T21:27:13.635Z,99799.98
2018-08-24T21:30:11.617Z,99806.73
2018-08-24T21:33:09.842Z,99804.03
2018-08-24T21:36:07.861Z,99810.47
2018-08-24T21:39:06.318Z,99812.14
2018-08-24T21:42:04.551Z,99812.14
2018-08-24T21:45:02.598Z,99810.97
2018-08-24T21:48:00.533Z,99807.42
2018-08-24T21:50:58.875Z,99813.67
2018-08-24T21:53:56.754Z,99807.42
2018-08-24T21:56:54.927Z,99817.72
2018-08-24T21:59:52.912Z,99821.42
2018-08-24T22:02:52.127Z,99820.42
2018-08-24T22:05:51.112Z,99822.27
2018-08-24T22:08:49.419Z,99824.63
2018-08-24T22:11:47.761Z,99824.97
2018-08-24T22:14:45.937Z,99826.82
2018-08-24T22:17:44.117Z,99830.02
2018-08-24T22:20:43.116Z,99833.58
2018-08-24T22:23:41.780Z,99831.91
2018-08-24T22:26:39.978Z,99831.56
2018-08-24T22:29:38.060Z,99830.70
2018-08-24T22:32:36.434Z,99841.51
2018-08-24T22:35:34.127Z,99844.21
2018-08-24T22:38:32.646Z,99848.77
2018-08-24T22:41:31.743Z,99850.64
2018-08-24T22:44:31.150Z,99852.00
2018-08-24T22:47:29.282Z,99860.59
2018-08-24T22:50:27.601Z,99857.89
2018-08-24T22:53:25.492Z,99867.00
2018-08-24T22:56:23.896Z,99871.55
2018-08-24T22:59:22.727Z,99869.38
2018-08-24T23:02:20.682Z,99872.89
2018-08-24T23:05:18.767Z,99877.98
2018-08-24T23:08:17.691Z,99870.38
2018-08-24T23:11:15.756Z,99867.86
2018-08-24T23:14:14.927Z,99873.08
2018-08-24T23:17:14.169Z,99873.27
2018-08-24T23:20:13.272Z,99871.06
2018-08-24T23:23:11.451Z,99881.01
2018-08-24T23:26:09.844Z,99887.41
2018-08-24T23:29:09.323Z,99863.64
2018-08-24T23:32:07.932Z,99899.41
2018-08-24T23:35:06.104Z,99893.66
2018-08-24T23:38:04.387Z,99888.61
2018-08-24T23:41:02.390Z,99882.71
2018-08-24T23:44:02.136Z,99878.48
2018-08-24T23:47:00.822Z,99886.92
2018-08-24T23:49:59.369Z,99883.70
2018-08-24T23:52:57.287Z,99890.30
2018-08-24T23:55:55.238Z,99883.05
2018-08-24T23:58:53.246Z,99890.61
